createdAt,value
2022-10-17T00:01:07.936Z,101300.72
2022-10-17T00:03:38.806Z,101302.50
2022-10-17T00:06:12.156Z,101307.75
2022-10-17T00:08:41.140Z,101307.63
2022-10-17T00:11:15.562Z,101312.91
2022-10-17T00:13:43.736Z,101319.94
2022-10-17T00:16:11.668Z,101318.16
2022-10-17T00:18:39.668Z,101321.66
2022-10-17T00:21:15.008Z,101326.03
2022-10-17T00:23:42.937Z,101323.34
2022-10-17T00:26:10.991Z,101328.50
2022-10-17T00:28:39.055Z,101318.72
2022-10-17T00:31:08.069Z,101319.78
2022-10-17T00:33:36.719Z,101318.97
2022-10-17T00:36:09.341Z,101309.25
2022-10-17T00:38:37.807Z,101300.66
2022-10-17T00:41:05.778Z,101306.88
2022-10-17T00:44:03.227Z,101307.84
2022-10-17T00:46:35.039Z,101298.22
2022-10-17T00:49:10.201Z,101304.22
2022-10-17T00:51:41.894Z,101308.63
2022-10-17T00:54:12.921Z,101313.16
2022-10-17T00:56:40.807Z,101313.28
2022-10-17T00:59:11.513Z,101315.06
2022-10-17T01:01:43.435Z,101317.84
2022-10-17T01:04:11.488Z,101317.03
2022-10-17T01:06:40.483Z,101319.72
2022-10-17T01:09:08.393Z,101309.22
2022-10-17T01:12:01.640Z,101315.38
2022-10-17T01:15:00.677Z,101317.03
2022-10-17T01:17:46.616Z,101325.66
2022-10-17T01:20:51.717Z,101330.00
2022-10-17T01:23:41.144Z,101326.56
2022-10-17T01:26:23.100Z,101334.56
2022-10-17T01:29:06.676Z,101336.19
2022-10-17T01:31:49.194Z,101334.34
2022-10-17T01:34:30.202Z,101330.53
2022-10-17T01:37:03.930Z,101330.25
2022-10-17T01:39:41.616Z,101337.16
2022-10-17T01:42:43.130Z,101328.28
2022-10-17T01:45:23.213Z,101317.81
2022-10-17T01:47:53.582Z,101321.97
2022-10-17T01:50:33.146Z,101318.56
2022-10-17T01:53:16.590Z,101322.06
2022-10-17T01:55:50.573Z,101312.44
2022-10-17T01:58:28.181Z,101315.75
2022-10-17T02:01:01.570Z,101311.38
2022-10-17T02:03:34.562Z,101321.06
2022-10-17T02:06:02.933Z,101321.97
2022-10-17T02:08:49.431Z,101321.91
2022-10-17T02:11:20.218Z,101317.22
2022-10-17T02:14:25.854Z,101319.94
2022-10-17T02:16:53.678Z,101326.56
2022-10-17T02:19:27.683Z,101326.66
2022-10-17T02:22:16.474Z,101320.75
2022-10-17T02:24:55.862Z,101329.31
2022-10-17T02:27:26.947Z,101331.03
2022-10-17T02:30:05.847Z,101326.84
2022-10-17T02:32:35.780Z,101331.41
2022-10-17T02:35:07.497Z,101324.63
2022-10-17T02:37:36.536Z,101329.94
2022-10-17T02:40:06.763Z,101333.47
2022-10-17T02:42:35.278Z,101344.09
2022-10-17T02:45:05.907Z,101352.00
2022-10-17T02:47:48.253Z,101354.78
2022-10-17T02:50:16.404Z,101367.00
2022-10-17T02:52:59.042Z,101372.16
2022-10-17T02:55:33.585Z,101375.59
2022-10-17T02:58:07.091Z,101364.47
2022-10-17T03:00:41.858Z,101376.50
2022-10-17T03:03:32.018Z,101370.47
2022-10-17T03:06:02.974Z,101370.34
2022-10-17T03:08:30.951Z,101378.28
2022-10-17T03:10:58.852Z,101386.75
2022-10-17T03:13:29.377Z,101388.28
2022-10-17T03:15:58.169Z,101391.00
2022-10-17T03:18:26.118Z,101396.28
2022-10-17T03:20:58.793Z,101393.69
2022-10-17T03:23:26.784Z,101405.91
2022-10-17T03:25:54.705Z,101398.03
2022-10-17T03:28:23.178Z,101399.59
2022-10-17T03:30:51.214Z,101398.66
2022-10-17T03:33:19.049Z,101388.81
2022-10-17T03:35:46.935Z,101391.53
2022-10-17T03:38:15.080Z,101394.97
2022-10-17T03:40:42.945Z,101407.78
2022-10-17T03:43:11.935Z,101411.91
2022-10-17T03:45:41.640Z,101417.28
2022-10-17T03:48:09.375Z,101411.19
2022-10-17T03:50:37.344Z,101414.91
2022-10-17T03:53:05.037Z,101408.69
2022-10-17T03:55:33.748Z,101414.78
2022-10-17T03:58:01.494Z,101409.53
2022-10-17T04:00:30.005Z,101402.81
2022-10-17T04:02:59.567Z,101410.31
2022-10-17T04:05:28.044Z,101414.47
2022-10-17T04:07:58.763Z,101413.53
2022-10-17T04:10:48.846Z,101408.22
2022-10-17T04:13:16.557Z,101407.19
2022-10-17T04:15:58.033Z,101409.81
2022-10-17T04:18:25.834Z,101413.91
2022-10-17T04:20:54.400Z,101411.25
2022-10-17T04:23:23.053Z,101419.94
2022-10-17T04:26:03.986Z,101425.13
2022-10-17T04:28:32.991Z,101426.72
2022-10-17T04:31:05.875Z,101431.06
2022-10-17T04:33:40.150Z,101429.00
2022-10-17T04:36:14.497Z,101423.56
2022-10-17T04:38:42.427Z,101424.34
2022-10-17T04:41:16.350Z,101427.09
2022-10-17T04:43:47.060Z,101435.69
2022-10-17T04:46:19.562Z,101431.25
2022-10-17T04:48:47.880Z,101433.88
2022-10-17T04:51:20.695Z,101431.09
2022-10-17T04:54:11.212Z,101434.56
2022-10-17T04:56:42.640Z,101431.97
2022-10-17T04:59:10.748Z,101435.34
2022-10-17T05:01:40.960Z,101441.31
2022-10-17T05:04:08.629Z,101446.47
2022-10-17T05:06:38.175Z,101444.97
2022-10-17T05:09:24.553Z,101447.34
2022-10-17T05:11:52.714Z,101449.28
2022-10-17T05:14:20.553Z,101445.78
2022-10-17T05:16:50.358Z,101451.13
2022-10-17T05:19:18.611Z,101461.38
2022-10-17T05:21:50.158Z,101459.78
2022-10-17T05:24:18.108Z,101468.59
2022-10-17T05:26:45.973Z,101483.47
2022-10-17T05:29:14.110Z,101479.88
2022-10-17T05:31:47.209Z,101484.97
2022-10-17T05:34:15.023Z,101494.44
2022-10-17T05:36:43.611Z,101497.63
2022-10-17T05:39:14.903Z,101497.25
2022-10-17T05:41:43.305Z,101482.09
2022-10-17T05:44:11.007Z,101491.75
2022-10-17T05:46:42.086Z,101499.81
2022-10-17T05:49:19.688Z,101505.50
2022-10-17T05:52:00.177Z,101512.53
2022-10-17T05:54:28.356Z,101514.91
2022-10-17T05:56:57.434Z,101515.81
2022-10-17T05:59:29.450Z,101520.00
2022-10-17T06:02:17.727Z,101533.84
2022-10-17T06:04:48.558Z,101539.19
2022-10-17T06:07:17.100Z,101542.63
2022-10-17T06:12:18.721Z,101546.09
2022-10-17T06:14:47.434Z,101529.66
2022-10-17T06:17:16.867Z,101540.84
2022-10-17T06:19:45.533Z,101535.34
2022-10-17T06:22:15.846Z,101541.53
2022-10-17T06:24:44.370Z,101540.69
2022-10-17T06:27:13.460Z,101542.16
2022-10-17T06:29:42.383Z,101540.28
2022-10-17T06:32:14.278Z,101541.91
2022-10-17T06:34:46.013Z,101553.66
2022-10-17T06:37:13.915Z,101548.22
2022-10-17T06:39:42.868Z,101556.41
2022-10-17T06:42:21.531Z,101562.97
2022-10-17T06:45:07.582Z,101567.28
2022-10-17T06:48:02.112Z,101566.09
2022-10-17T06:50:52.333Z,101564.47
2022-10-17T06:53:25.044Z,101573.78
2022-10-17T06:56:09.452Z,101576.63
2022-10-17T06:58:55.656Z,101569.16
2022-10-17T07:01:26.793Z,101568.00
2022-10-17T07:03:58.469Z,101577.22
2022-10-17T07:06:26.426Z,101581.66
2022-10-17T07:08:57.193Z,101586.69
2022-10-17T07:11:25.892Z,101575.41
2022-10-17T07:13:54.113Z,101581.63
2022-10-17T07:16:22.931Z,101574.50
2022-10-17T07:18:58.797Z,101578.88
2022-10-17T07:21:26.611Z,101580.03
2022-10-17T07:23:54.518Z,101578.56
2022-10-17T07:26:23.248Z,101587.09
2022-10-17T07:28:54.306Z,101591.38
2022-10-17T07:31:33.416Z,101592.38
2022-10-17T07:34:01.541Z,101593.81
2022-10-17T07:36:30.178Z,101598.72
2022-10-17T07:38:59.918Z,101595.50
2022-10-17T07:41:28.426Z,101593.91
2022-10-17T07:43:56.817Z,101594.13
2022-10-17T07:46:31.054Z,101594.69
2022-10-17T07:48:59.297Z,101600.81
2022-10-17T07:51:27.968Z,101612.84
2022-10-17T07:53:55.871Z,101615.41
2022-10-17T07:56:24.879Z,101618.75
2022-10-17T07:58:53.807Z,101618.44
2022-10-17T08:01:21.572Z,101618.19
2022-10-17T08:03:49.593Z,101621.94
2022-10-17T08:06:17.884Z,101631.44
2022-10-17T08:08:45.781Z,101631.94
2022-10-17T08:11:15.701Z,101634.66
2022-10-17T08:13:43.743Z,101641.72
2022-10-17T08:16:13.570Z,101647.31
2022-10-17T08:18:42.963Z,101643.41
2022-10-17T08:21:13.097Z,101633.16
2022-10-17T08:23:41.792Z,101638.25
2022-10-17T08:26:13.286Z,101631.88
2022-10-17T08:28:41.779Z,101632.34
2022-10-17T08:31:19.400Z,101637.13
2022-10-17T08:33:48.695Z,101631.69
2022-10-17T08:36:19.494Z,101623.53
2022-10-17T08:38:52.471Z,101620.09
2022-10-17T08:41:38.673Z,101627.47
2022-10-17T08:44:09.549Z,101623.00
2022-10-17T08:46:42.656Z,101616.91
2022-10-17T08:49:41.620Z,101616.28
2022-10-17T08:52:27.837Z,101620.75
2022-10-17T08:54:56.093Z,101615.34
2022-10-17T08:57:23.828Z,101621.75
2022-10-17T08:59:57.048Z,101617.00
2022-10-17T09:02:52.824Z,101625.22
2022-10-17T09:05:26.943Z,101623.53
2022-10-17T09:08:06.786Z,101627.66
2022-10-17T09:11:02.343Z,101619.00
2022-10-17T09:14:06.830Z,101614.72
2022-10-17T09:17:10.428Z,101620.28
2022-10-17T09:19:59.843Z,101613.84
2022-10-17T09:22:52.241Z,101613.03
2022-10-17T09:25:21.432Z,101609.59
2022-10-17T09:28:02.189Z,101603.66
2022-10-17T09:30:49.423Z,101613.66
2022-10-17T09:33:34.655Z,101614.53
2022-10-17T09:36:16.551Z,101598.44
2022-10-17T09:39:15.401Z,101617.28
2022-10-17T09:41:48.715Z,101614.56
2022-10-17T09:44:16.663Z,101612.56
2022-10-17T09:47:04.590Z,101611.91
2022-10-17T09:49:36.330Z,101615.00
2022-10-17T09:52:10.277Z,101603.38
2022-10-17T09:54:57.468Z,101602.75
2022-10-17T09:57:26.409Z,101607.25
2022-10-17T10:00:05.861Z,101607.25
2022-10-17T10:02:41.284Z,101592.25
2022-10-17T10:05:21.088Z,101599.75
2022-10-17T10:08:06.224Z,101591.13
2022-10-17T10:10:34.316Z,101591.09
2022-10-17T10:13:28.282Z,101585.88
2022-10-17T10:16:18.474Z,101589.38
2022-10-17T10:18:48.728Z,101588.34
2022-10-17T10:21:27.382Z,101574.91
2022-10-17T10:24:09.890Z,101571.53
2022-10-17T10:26:50.086Z,101575.34
2022-10-17T10:29:32.545Z,101564.69
2022-10-17T10:32:27.308Z,101566.53
2022-10-17T10:35:08.582Z,101567.91
2022-10-17T10:37:48.287Z,101566.00
2022-10-17T10:40:18.641Z,101566.00
2022-10-17T10:42:58.418Z,101569.44
2022-10-17T10:45:48.530Z,101569.53
2022-10-17T10:48:24.515Z,101570.38
2022-10-17T10:51:16.454Z,101575.91
2022-10-17T10:54:19.307Z,101565.22
2022-10-17T10:56:56.401Z,101562.00
2022-10-17T10:59:43.008Z,101561.91
2022-10-17T11:02:27.722Z,101562.41
2022-10-17T11:05:01.803Z,101568.09
2022-10-17T11:07:45.799Z,101563.22
2022-10-17T11:10:44.812Z,101566.13
2022-10-17T11:13:28.960Z,101562.56
2022-10-17T11:16:04.707Z,101564.78
2022-10-17T11:19:00.467Z,101558.09
2022-10-17T11:22:05.423Z,101565.13
2022-10-17T11:24:56.984Z,101565.81
2022-10-17T11:27:26.249Z,101556.25
2022-10-17T11:29:54.066Z,101566.44
2022-10-17T11:32:32.740Z,101562.50
2022-10-17T11:35:20.331Z,101570.22
2022-10-17T11:38:04.280Z,101563.78
2022-10-17T11:40:36.160Z,101566.13
2022-10-17T11:43:14.794Z,101562.06
2022-10-17T11:45:47.551Z,101563.16
2022-10-17T11:48:23.520Z,101563.97
2022-10-17T11:54:28.877Z,101558.38
2022-10-17T11:57:13.881Z,101561.09
2022-10-17T12:00:23.244Z,101564.41
2022-10-17T12:03:12.070Z,101565.06
2022-10-17T12:05:57.516Z,101564.78
2022-10-17T12:08:41.356Z,101570.38
2022-10-17T12:11:24.799Z,101573.63
2022-10-17T12:13:56.934Z,101564.13
2022-10-17T12:16:24.954Z,101555.72
2022-10-17T12:19:01.760Z,101554.28
2022-10-17T12:21:50.485Z,101560.09
2022-10-17T12:24:43.197Z,101555.31
2022-10-17T12:27:46.080Z,101563.97
2022-10-17T12:30:19.421Z,101555.91
2022-10-17T12:33:22.591Z,101546.69
2022-10-17T12:35:52.482Z,101548.38
2022-10-17T12:38:27.883Z,101542.50
2022-10-17T12:40:57.421Z,101538.97
2022-10-17T12:43:28.320Z,101534.75
2022-10-17T12:46:04.028Z,101535.50
2022-10-17T12:48:37.883Z,101535.22
2022-10-17T12:51:48.173Z,101534.38
2022-10-17T12:54:18.518Z,101528.88
2022-10-17T12:56:49.430Z,101526.59
2022-10-17T12:59:28.226Z,101527.91
2022-10-17T13:01:59.976Z,101528.13
2022-10-17T13:04:30.626Z,101518.75
2022-10-17T13:07:01.102Z,101521.22
2022-10-17T13:09:32.616Z,101521.22
2022-10-17T13:12:10.861Z,101521.25
2022-10-17T13:14:42.284Z,101528.63
2022-10-17T13:17:30.774Z,101518.72
2022-10-17T13:19:58.902Z,101521.50
2022-10-17T13:22:32.340Z,101517.50
2022-10-17T13:25:15.202Z,101519.25
2022-10-17T13:27:43.465Z,101521.34
2022-10-17T13:30:29.312Z,101519.28
2022-10-17T13:33:00.446Z,101519.19
2022-10-17T13:35:59.893Z,101519.66
2022-10-17T13:38:26.771Z,101516.16
2022-10-17T13:41:01.636Z,101515.28
2022-10-17T13:43:33.942Z,101512.25
2022-10-17T13:46:25.488Z,101512.03
2022-10-17T13:48:53.887Z,101500.34
2022-10-17T13:51:22.243Z,101500.44
2022-10-17T13:53:49.963Z,101499.19
2022-10-17T13:56:29.275Z,101504.25
2022-10-17T13:59:09.458Z,101494.16
2022-10-17T14:01:39.089Z,101496.44
2022-10-17T14:04:11.633Z,101488.91
2022-10-17T14:06:49.843Z,101489.59
2022-10-17T14:09:25.184Z,101490.09
2022-10-17T14:12:03.857Z,101482.28
2022-10-17T14:14:51.765Z,101492.34
2022-10-17T14:17:29.159Z,101490.78
2022-10-17T14:23:17.529Z,101488.25
2022-10-17T14:25:41.012Z,101482.75
2022-10-17T14:28:12.527Z,101474.91
2022-10-17T14:30:58.345Z,101484.16
2022-10-17T14:33:31.610Z,101479.63
2022-10-17T14:36:01.519Z,101467.88
2022-10-17T14:38:30.487Z,101473.88
2022-10-17T14:41:41.340Z,101469.22
2022-10-17T14:44:06.341Z,101465.56
2022-10-17T14:46:36.230Z,101468.88
2022-10-17T14:49:18.419Z,101470.91
2022-10-17T14:52:14.903Z,101464.22
2022-10-17T14:54:47.424Z,101460.41
2022-10-17T14:57:50.852Z,101461.59
2022-10-17T15:00:21.078Z,101463.97
2022-10-17T15:02:50.216Z,101464.44
2022-10-17T15:05:19.690Z,101459.28
2022-10-17T15:07:47.526Z,101456.94
2022-10-17T15:10:26.749Z,101462.13
2022-10-17T15:12:59.258Z,101464.00
2022-10-17T15:15:33.272Z,101456.03
2022-10-17T15:18:01.386Z,101468.38
2022-10-17T15:20:30.639Z,101464.44
2022-10-17T15:23:01.434Z,101469.28
2022-10-17T15:25:30.989Z,101464.16
2022-10-17T15:27:59.073Z,101463.72
2022-10-17T15:30:29.796Z,101456.28
2022-10-17T15:32:57.794Z,101459.38
2022-10-17T15:35:27.240Z,101466.22
2022-10-17T15:37:55.371Z,101468.50
2022-10-17T15:40:24.530Z,101467.34
2022-10-17T15:42:52.802Z,101470.44
2022-10-17T15:45:24.217Z,101464.78
2022-10-17T15:48:05.281Z,101455.91
2022-10-17T15:50:33.410Z,101459.16
2022-10-17T15:53:01.165Z,101462.50
2022-10-17T15:55:29.226Z,101461.09
2022-10-17T15:57:57.038Z,101464.19
2022-10-17T16:00:25.517Z,101473.50
2022-10-17T16:02:53.270Z,101460.75
2022-10-17T16:05:23.686Z,101470.00
2022-10-17T16:07:52.175Z,101466.91
2022-10-17T16:10:20.827Z,101469.06
2022-10-17T16:12:50.493Z,101465.88
2022-10-17T16:15:22.971Z,101461.66
2022-10-17T16:17:51.866Z,101463.94
2022-10-17T16:20:20.982Z,101459.06
2022-10-17T16:22:49.744Z,101468.88
2022-10-17T16:25:24.439Z,101465.50
2022-10-17T16:27:55.034Z,101459.78
2022-10-17T16:30:24.416Z,101448.91
2022-10-17T16:32:52.884Z,101447.28
2022-10-17T16:35:31.712Z,101445.72
2022-10-17T16:38:02.603Z,101453.13
2022-10-17T16:40:30.523Z,101444.22
2022-10-17T16:42:59.816Z,101438.31
2022-10-17T16:45:27.909Z,101445.66
2022-10-17T16:47:55.861Z,101441.38
2022-10-17T16:50:24.469Z,101437.06
2022-10-17T16:52:52.246Z,101445.91
2022-10-17T16:55:20.636Z,101442.47
2022-10-17T16:57:49.286Z,101440.00
2022-10-17T17:00:18.194Z,101448.94
2022-10-17T17:02:48.340Z,101447.16
2022-10-17T17:05:16.399Z,101448.81
2022-10-17T17:07:44.143Z,101446.75
2022-10-17T17:10:12.166Z,101435.50
2022-10-17T17:12:39.853Z,101441.06
2022-10-17T17:15:07.959Z,101446.66
2022-10-17T17:17:49.719Z,101439.88
2022-10-17T17:20:19.351Z,101430.94
2022-10-17T17:22:47.076Z,101434.38
2022-10-17T17:25:14.994Z,101438.78
2022-10-17T17:27:42.668Z,101443.44
2022-10-17T17:30:10.989Z,101441.59
2022-10-17T17:32:38.698Z,101450.22
2022-10-17T17:35:07.180Z,101448.47
2022-10-17T17:37:34.962Z,101445.28
2022-10-17T17:40:02.923Z,101445.38
2022-10-17T17:42:30.681Z,101440.44
2022-10-17T17:44:58.718Z,101442.38
2022-10-17T17:47:29.864Z,101436.69
2022-10-17T17:49:58.068Z,101442.28
2022-10-17T17:52:25.911Z,101438.59
2022-10-17T17:54:53.880Z,101436.19
2022-10-17T17:57:21.833Z,101429.13
2022-10-17T17:59:50.168Z,101429.19
2022-10-17T18:02:17.940Z,101435.84
2022-10-17T18:04:46.001Z,101435.50
2022-10-17T18:07:13.959Z,101431.78
2022-10-17T18:09:41.886Z,101420.66
2022-10-17T18:12:09.663Z,101435.97
2022-10-17T18:14:37.593Z,101437.81
2022-10-17T18:17:05.268Z,101434.47
2022-10-17T18:19:33.598Z,101436.66
2022-10-17T18:22:01.423Z,101436.94
2022-10-17T18:24:29.345Z,101431.84
2022-10-17T18:26:59.823Z,101439.41
2022-10-17T18:29:29.513Z,101429.53
2022-10-17T18:31:57.606Z,101430.22
2022-10-17T18:34:25.666Z,101433.66
2022-10-17T18:36:54.068Z,101414.50
2022-10-17T18:39:21.993Z,101431.16
2022-10-17T18:41:49.905Z,101429.75
2022-10-17T18:44:17.817Z,101422.47
2022-10-17T18:49:21.301Z,101420.13
2022-10-17T18:51:49.262Z,101426.44
2022-10-17T18:54:20.485Z,101423.91
2022-10-17T18:56:51.145Z,101430.00
2022-10-17T18:59:20.220Z,101432.47
2022-10-17T19:01:48.611Z,101426.44
2022-10-17T19:04:17.015Z,101427.19
2022-10-17T19:06:44.857Z,101423.69
2022-10-17T19:09:14.443Z,101422.06
2022-10-17T19:11:42.906Z,101425.63
2022-10-17T19:14:15.461Z,101430.00
2022-10-17T19:16:50.923Z,101430.47
2022-10-17T19:19:22.487Z,101430.34
2022-10-17T19:21:50.941Z,101421.50
2022-10-17T19:24:22.107Z,101420.41
2022-10-17T19:26:53.438Z,101412.03
2022-10-17T19:29:24.277Z,101410.25
2022-10-17T19:31:52.548Z,101420.13
2022-10-17T19:34:20.583Z,101421.22
2022-10-17T19:36:48.523Z,101419.63
2022-10-17T19:39:19.352Z,101417.41
2022-10-17T19:41:48.250Z,101414.47
2022-10-17T19:44:16.957Z,101418.34
2022-10-17T19:46:46.717Z,101413.94
2022-10-17T19:49:15.417Z,101406.25
2022-10-17T19:51:43.408Z,101410.94
2022-10-17T19:54:11.782Z,101416.16
2022-10-17T19:56:40.412Z,101422.41
2022-10-17T19:59:11.356Z,101415.47
2022-10-17T20:01:39.321Z,101422.47
2022-10-17T20:04:08.848Z,101419.78
2022-10-17T20:06:36.910Z,101410.09
2022-10-17T20:09:06.036Z,101417.75
2022-10-17T20:11:34.229Z,101411.72
2022-10-17T20:14:02.132Z,101411.97
2022-10-17T20:16:32.030Z,101381.56
2022-10-17T20:19:06.095Z,101388.47
2022-10-17T20:21:39.464Z,101390.63
2022-10-17T20:24:12.135Z,101385.00
2022-10-17T20:26:40.828Z,101384.22
2022-10-17T20:29:15.410Z,101384.91
2022-10-17T20:31:44.662Z,101383.78
2022-10-17T20:34:15.142Z,101385.22
2022-10-17T20:36:42.932Z,101382.16
2022-10-17T20:39:13.061Z,101379.22
2022-10-17T20:41:41.754Z,101381.34
2022-10-17T20:44:10.436Z,101380.66
2022-10-17T20:46:44.671Z,101382.47
2022-10-17T20:49:21.326Z,101377.63
2022-10-17T20:51:49.308Z,101370.63
2022-10-17T20:54:17.449Z,101372.41
2022-10-17T20:56:45.232Z,101367.47
2022-10-17T20:59:16.123Z,101361.28
2022-10-17T21:01:45.411Z,101354.72
2022-10-17T21:07:02.237Z,101347.41
2022-10-17T21:09:30.653Z,101347.72
2022-10-17T21:11:58.677Z,101354.56
2022-10-17T21:14:26.746Z,101351.06
2022-10-17T21:16:54.603Z,101348.16
2022-10-17T21:19:22.937Z,101338.31
2022-10-17T21:21:51.013Z,101338.16
2022-10-17T21:24:20.823Z,101341.53
2022-10-17T21:26:55.294Z,101348.38
2022-10-17T21:29:24.363Z,101345.88
2022-10-17T21:31:52.887Z,101343.91
2022-10-17T21:34:24.668Z,101347.91
2022-10-17T21:36:52.930Z,101345.38
2022-10-17T21:39:23.004Z,101345.88
2022-10-17T21:41:51.645Z,101348.72
2022-10-17T21:44:23.440Z,101346.22
2022-10-17T21:46:52.178Z,101344.63
2022-10-17T21:49:23.449Z,101339.44
2022-10-17T21:51:54.414Z,101329.88
2022-10-17T21:54:23.615Z,101320.44
2022-10-17T21:56:51.645Z,101327.75
2022-10-17T21:59:19.513Z,101334.63
2022-10-17T22:01:47.415Z,101327.84
2022-10-17T22:04:18.992Z,101322.59
2022-10-17T22:06:51.239Z,101327.97
2022-10-17T22:09:23.149Z,101328.97
2022-10-17T22:11:53.721Z,101332.16
2022-10-17T22:14:23.629Z,101330.66
2022-10-17T22:16:51.573Z,101335.38
2022-10-17T22:19:25.189Z,101327.09
2022-10-17T22:21:53.616Z,101324.81
2022-10-17T22:24:22.483Z,101323.28
2022-10-17T22:26:51.027Z,101316.28
2022-10-17T22:29:19.044Z,101315.28
2022-10-17T22:31:47.042Z,101316.28
2022-10-17T22:34:16.350Z,101310.00
2022-10-17T22:36:44.719Z,101319.03
2022-10-17T22:39:12.971Z,101315.81
2022-10-17T22:41:40.693Z,101322.00
2022-10-17T22:44:08.691Z,101317.44
2022-10-17T22:46:36.601Z,101308.63
2022-10-17T22:49:04.853Z,101320.31
2022-10-17T22:51:33.025Z,101316.00
2022-10-17T22:54:02.311Z,101326.81
2022-10-17T22:56:30.110Z,101326.94
2022-10-17T22:58:58.109Z,101320.78
2022-10-17T23:01:26.510Z,101312.28
2022-10-17T23:03:54.505Z,101317.19
2022-10-17T23:06:22.616Z,101315.09
2022-10-17T23:08:51.061Z,101322.03
2022-10-17T23:11:19.144Z,101313.53
2022-10-17T23:13:47.036Z,101318.63
2022-10-17T23:16:14.870Z,101313.44
2022-10-17T23:18:44.161Z,101316.00
2022-10-17T23:21:12.146Z,101317.09
2022-10-17T23:23:40.003Z,101311.72
2022-10-17T23:26:12.754Z,101307.66
2022-10-17T23:28:42.468Z,101304.25
2022-10-17T23:31:19.393Z,101303.41
2022-10-17T23:33:49.124Z,101296.31
2022-10-17T23:36:19.178Z,101297.66
2022-10-17T23:38:48.673Z,101300.66
2022-10-17T23:41:17.265Z,101300.63
2022-10-17T23:43:45.632Z,101299.47
2022-10-17T23:46:13.849Z,101313.53
2022-10-17T23:48:42.196Z,101306.66
2022-10-17T23:51:10.774Z,101298.13
2022-10-17T23:53:39.543Z,101297.28
2022-10-17T23:56:08.718Z,101304.34
2022-10-17T23:58:37.588Z,101301.59
